createdAt,value
2019-05-23T00:01:18.087Z,100812.03
2019-05-23T00:04:04.257Z,100804.16
2019-05-23T00:06:33.616Z,100798.55
2019-05-23T00:09:03.494Z,100802.16
2019-05-23T00:11:46.985Z,100803.09
2019-05-23T00:14:22.439Z,100806.92
2019-05-23T00:16:52.342Z,100802.02
2019-05-23T00:19:21.834Z,100800.09
2019-05-23T00:21:51.472Z,100808.38
2019-05-23T00:24:20.430Z,100806.38
2019-05-23T00:26:49.103Z,100802.69
2019-05-23T00:29:17.788Z,100804.30
2019-05-23T00:31:51.424Z,100810.09
2019-05-23T00:34:21.517Z,100800.77
2019-05-23T00:36:51.261Z,100802.04
2019-05-23T00:39:20.471Z,100805.17
2019-05-23T00:41:49.453Z,100794.93
2019-05-23T00:44:19.077Z,100797.27
2019-05-23T00:46:48.708Z,100798.48
2019-05-23T00:49:18.519Z,100798.88
2019-05-23T00:51:48.324Z,100801.51
2019-05-23T00:54:19.299Z,100799.96
2019-05-23T00:56:48.360Z,100803.04
2019-05-23T00:59:26.461Z,100803.55
2019-05-23T01:01:49.750Z,100799.37
2019-05-23T01:04:19.072Z,100801.64
2019-05-23T01:06:48.399Z,100802.55
2019-05-23T01:09:18.368Z,100804.48
2019-05-23T01:11:47.537Z,100798.49
2019-05-23T01:14:16.878Z,100801.14
2019-05-23T01:16:47.088Z,100804.05
2019-05-23T01:19:17.417Z,100803.41
2019-05-23T01:21:56.277Z,100805.33
2019-05-23T01:24:37.378Z,100806.10
2019-05-23T01:27:07.175Z,100807.22
2019-05-23T01:29:49.551Z,100801.64
2019-05-23T01:32:34.475Z,100796.89
2019-05-23T01:35:04.384Z,100795.05
2019-05-23T01:37:34.649Z,100799.59
2019-05-23T01:40:05.366Z,100805.47
2019-05-23T01:42:34.102Z,100803.91
2019-05-23T01:45:03.418Z,100804.05
2019-05-23T01:47:32.436Z,100810.09
2019-05-23T01:50:02.022Z,100808.52
2019-05-23T01:52:31.411Z,100803.20
2019-05-23T01:55:00.952Z,100810.83
2019-05-23T01:57:30.192Z,100809.00
2019-05-23T02:00:09.907Z,100806.69
2019-05-23T02:02:30.513Z,100804.91
2019-05-23T02:04:59.251Z,100813.67
2019-05-23T02:07:30.200Z,100814.30
2019-05-23T02:09:59.383Z,100815.25
2019-05-23T02:12:28.927Z,100813.55
2019-05-23T02:14:57.669Z,100820.29
2019-05-23T02:17:26.339Z,100817.95
2019-05-23T02:19:56.468Z,100820.92
2019-05-23T02:22:25.134Z,100823.08
2019-05-23T02:24:53.910Z,100822.27
2019-05-23T02:27:23.121Z,100825.20
2019-05-23T02:29:51.867Z,100823.14
2019-05-23T02:32:20.559Z,100821.10
2019-05-23T02:34:50.489Z,100814.56
2019-05-23T02:37:35.500Z,100814.47
2019-05-23T02:40:15.296Z,100812.41
2019-05-23T02:42:48.191Z,100803.81
2019-05-23T02:45:22.925Z,100808.57
2019-05-23T02:47:52.743Z,100808.23
2019-05-23T02:50:46.369Z,100806.81
2019-05-23T02:53:17.311Z,100802.86
2019-05-23T02:55:48.801Z,100806.44
2019-05-23T02:58:24.039Z,100818.08
2019-05-23T03:01:01.507Z,100810.35
2019-05-23T03:03:33.063Z,100813.92
2019-05-23T03:06:04.588Z,100817.95
2019-05-23T03:08:35.059Z,100819.25
2019-05-23T03:11:42.391Z,100813.85
2019-05-23T03:14:13.387Z,100806.41
2019-05-23T03:16:44.427Z,100810.73
2019-05-23T03:19:21.365Z,100800.44
2019-05-23T03:21:53.825Z,100800.98
2019-05-23T03:24:22.962Z,100798.49
2019-05-23T03:27:05.187Z,100801.91
2019-05-23T03:29:35.410Z,100800.55
2019-05-23T03:32:13.530Z,100799.23
2019-05-23T03:34:43.658Z,100801.21
2019-05-23T03:37:13.327Z,100794.80
2019-05-23T03:39:42.542Z,100797.88
2019-05-23T03:42:12.673Z,100792.42
2019-05-23T03:44:43.326Z,100794.62
2019-05-23T03:47:16.456Z,100791.84
2019-05-23T03:49:45.479Z,100794.30
2019-05-23T03:52:16.311Z,100791.88
2019-05-23T03:54:46.952Z,100792.33
2019-05-23T03:57:16.986Z,100789.87
2019-05-23T03:59:47.227Z,100798.50
2019-05-23T04:02:18.265Z,100789.55
2019-05-23T04:04:47.657Z,100787.60
2019-05-23T04:07:17.452Z,100791.41
2019-05-23T04:09:46.405Z,100794.91
2019-05-23T04:12:15.165Z,100797.15
2019-05-23T04:14:45.794Z,100789.00
2019-05-23T04:17:15.047Z,100786.91
2019-05-23T04:19:44.180Z,100792.00
2019-05-23T04:22:13.020Z,100788.89
2019-05-23T04:24:42.292Z,100791.58
2019-05-23T04:27:11.829Z,100793.63
2019-05-23T04:29:40.545Z,100794.23
2019-05-23T04:32:09.697Z,100796.14
2019-05-23T04:34:38.902Z,100791.33
2019-05-23T04:37:07.622Z,100792.75
2019-05-23T04:39:36.283Z,100788.91
2019-05-23T04:42:05.403Z,100792.83
2019-05-23T04:44:34.108Z,100791.84
2019-05-23T04:47:02.811Z,100790.75
2019-05-23T04:49:31.486Z,100797.52
2019-05-23T04:52:00.577Z,100797.59
2019-05-23T04:54:29.417Z,100799.22
2019-05-23T04:56:58.848Z,100801.14
2019-05-23T04:59:27.536Z,100802.52
2019-05-23T05:01:56.776Z,100803.44
2019-05-23T05:04:25.682Z,100796.66
2019-05-23T05:06:54.370Z,100797.87
2019-05-23T05:09:31.441Z,100802.16
2019-05-23T05:12:01.233Z,100801.23
2019-05-23T05:14:31.071Z,100804.90
2019-05-23T05:16:59.999Z,100800.23
2019-05-23T05:19:28.759Z,100800.73
2019-05-23T05:21:57.927Z,100801.30
2019-05-23T05:24:26.698Z,100805.30
2019-05-23T05:26:55.520Z,100799.48
2019-05-23T05:29:24.386Z,100808.88
2019-05-23T05:31:54.187Z,100809.51
2019-05-23T05:34:23.618Z,100807.38
2019-05-23T05:36:52.303Z,100807.05
2019-05-23T05:39:23.157Z,100796.48
2019-05-23T05:41:52.443Z,100797.60
2019-05-23T05:44:21.780Z,100797.12
2019-05-23T05:46:51.435Z,100798.50
2019-05-23T05:49:21.158Z,100810.37
2019-05-23T05:51:49.940Z,100803.56
2019-05-23T05:54:19.170Z,100804.44
2019-05-23T05:56:47.861Z,100805.20
2019-05-23T05:59:16.525Z,100801.38
2019-05-23T06:01:45.445Z,100804.64
2019-05-23T06:04:14.117Z,100805.56
2019-05-23T06:06:54.704Z,100804.97
2019-05-23T06:09:25.178Z,100811.44
2019-05-23T06:11:54.293Z,100804.52
2019-05-23T06:14:22.979Z,100810.92
2019-05-23T06:16:53.577Z,100808.39
2019-05-23T06:19:22.833Z,100808.34
2019-05-23T06:21:51.562Z,100815.50
2019-05-23T06:24:39.234Z,100817.38
2019-05-23T06:26:51.699Z,100819.84
2019-05-23T06:29:20.481Z,100820.98
2019-05-23T06:31:49.342Z,100809.41
2019-05-23T06:34:19.688Z,100816.08
2019-05-23T06:36:48.679Z,100811.27
2019-05-23T06:39:17.896Z,100808.00
2019-05-23T06:41:47.237Z,100801.45
2019-05-23T06:44:17.188Z,100799.57
2019-05-23T06:46:45.895Z,100795.26
2019-05-23T06:49:14.562Z,100797.91
2019-05-23T06:51:43.430Z,100793.77
2019-05-23T06:54:12.515Z,100792.69
2019-05-23T06:56:41.265Z,100793.10
2019-05-23T06:59:09.966Z,100796.36
2019-05-23T07:01:38.708Z,100800.36
2019-05-23T07:04:08.132Z,100790.50
2019-05-23T07:06:37.889Z,100793.65
2019-05-23T07:09:12.447Z,100791.17
2019-05-23T07:11:41.191Z,100792.12
2019-05-23T07:14:11.316Z,100797.39
2019-05-23T07:16:40.090Z,100794.56
2019-05-23T07:19:08.855Z,100791.12
2019-05-23T07:21:37.881Z,100787.36
2019-05-23T07:24:07.835Z,100793.07
2019-05-23T07:26:37.307Z,100790.34
2019-05-23T07:29:06.742Z,100793.56
2019-05-23T07:31:35.766Z,100779.70
2019-05-23T07:34:04.741Z,100786.39
2019-05-23T07:36:34.035Z,100782.64
2019-05-23T07:39:03.098Z,100781.50
2019-05-23T07:41:31.867Z,100784.48
2019-05-23T07:44:00.986Z,100782.53
2019-05-23T07:46:30.116Z,100784.57
2019-05-23T07:48:58.945Z,100779.55
2019-05-23T07:51:29.728Z,100786.95
2019-05-23T07:54:22.095Z,100783.56
2019-05-23T07:56:51.334Z,100782.77
2019-05-23T07:59:20.085Z,100777.76
2019-05-23T08:01:52.881Z,100773.69
2019-05-23T08:04:22.865Z,100770.94
2019-05-23T08:06:51.720Z,100766.59
2019-05-23T08:09:21.129Z,100768.92
2019-05-23T08:11:50.362Z,100766.45
2019-05-23T08:14:19.050Z,100768.29
2019-05-23T08:16:47.711Z,100765.58
2019-05-23T08:19:19.619Z,100765.22
2019-05-23T08:21:47.075Z,100767.03
2019-05-23T08:24:16.918Z,100766.55
2019-05-23T08:26:47.637Z,100765.22
2019-05-23T08:29:32.036Z,100763.39
2019-05-23T08:31:48.749Z,100762.62
2019-05-23T08:34:17.969Z,100763.47
2019-05-23T08:36:47.380Z,100757.28
2019-05-23T08:39:17.993Z,100754.27
2019-05-23T08:41:46.692Z,100748.46
2019-05-23T08:44:16.268Z,100750.75
2019-05-23T08:46:45.082Z,100748.13
2019-05-23T08:49:14.139Z,100753.99
2019-05-23T08:51:42.875Z,100743.07
2019-05-23T08:54:11.554Z,100747.66
2019-05-23T08:56:40.263Z,100747.25
2019-05-23T08:59:10.676Z,100744.16
2019-05-23T09:01:39.533Z,100749.30
2019-05-23T09:04:09.150Z,100741.85
2019-05-23T09:06:38.429Z,100751.67
2019-05-23T09:09:27.456Z,100747.81
2019-05-23T09:11:40.315Z,100744.89
2019-05-23T09:14:09.734Z,100750.28
2019-05-23T09:16:39.318Z,100746.91
2019-05-23T09:19:08.375Z,100741.33
2019-05-23T09:21:37.476Z,100738.31
2019-05-23T09:24:06.788Z,100741.77
2019-05-23T09:26:35.541Z,100731.30
2019-05-23T09:29:06.134Z,100723.67
2019-05-23T09:31:34.972Z,100724.54
2019-05-23T09:34:03.752Z,100725.28
2019-05-23T09:36:33.262Z,100723.81
2019-05-23T09:39:02.107Z,100723.74
2019-05-23T09:41:31.185Z,100714.11
2019-05-23T09:43:59.851Z,100715.13
2019-05-23T09:46:28.621Z,100709.00
2019-05-23T09:48:57.381Z,100709.73
2019-05-23T09:51:26.149Z,100713.75
2019-05-23T09:53:54.812Z,100712.27
2019-05-23T09:56:23.663Z,100712.94
2019-05-23T09:58:52.348Z,100715.22
2019-05-23T10:01:21.127Z,100709.70
2019-05-23T10:03:49.928Z,100708.80
2019-05-23T10:06:18.702Z,100705.31
2019-05-23T10:08:47.361Z,100706.11
2019-05-23T10:11:16.198Z,100703.81
2019-05-23T10:13:44.857Z,100695.86
2019-05-23T10:16:13.733Z,100704.17
2019-05-23T10:18:43.708Z,100686.44
2019-05-23T10:21:12.444Z,100690.12
2019-05-23T10:23:41.276Z,100693.92
2019-05-23T10:26:09.974Z,100689.11
2019-05-23T10:28:38.663Z,100678.25
2019-05-23T10:31:09.356Z,100682.72
2019-05-23T10:33:38.056Z,100680.00
2019-05-23T10:36:06.905Z,100682.69
2019-05-23T10:38:35.583Z,100676.92
2019-05-23T10:41:04.864Z,100672.86
2019-05-23T10:43:33.608Z,100673.99
2019-05-23T10:46:02.436Z,100675.22
2019-05-23T10:48:31.184Z,100675.73
2019-05-23T10:51:00.617Z,100673.90
2019-05-23T10:53:29.415Z,100662.53
2019-05-23T10:55:58.087Z,100659.47
2019-05-23T10:58:26.877Z,100663.13
2019-05-23T11:00:55.775Z,100662.36
2019-05-23T11:03:25.388Z,100672.30
2019-05-23T11:05:54.189Z,100660.36
2019-05-23T11:08:28.087Z,100649.95
2019-05-23T11:10:53.374Z,100654.98
2019-05-23T11:13:22.058Z,100656.69
2019-05-23T11:15:50.823Z,100652.72
2019-05-23T11:18:19.584Z,100652.79
2019-05-23T11:20:48.435Z,100646.15
2019-05-23T11:23:22.385Z,100638.34
2019-05-23T11:25:51.156Z,100643.78
2019-05-23T11:28:19.837Z,100652.64
2019-05-23T11:30:51.626Z,100647.36
2019-05-23T11:33:21.750Z,100645.92
2019-05-23T11:35:50.566Z,100643.23
2019-05-23T11:38:19.823Z,100637.61
2019-05-23T11:40:48.543Z,100633.69
2019-05-23T11:43:17.234Z,100622.04
2019-05-23T11:45:49.310Z,100617.52
2019-05-23T11:48:18.628Z,100616.81
2019-05-23T11:50:47.572Z,100619.55
2019-05-23T11:53:16.348Z,100624.45
2019-05-23T11:55:45.382Z,100625.52
2019-05-23T11:58:14.138Z,100617.78
2019-05-23T12:01:20.581Z,100616.45
2019-05-23T12:03:44.499Z,100614.83
2019-05-23T12:06:13.243Z,100610.94
2019-05-23T12:08:41.937Z,100600.45
2019-05-23T12:11:11.254Z,100593.03
2019-05-23T12:13:39.981Z,100585.58
2019-05-23T12:16:08.922Z,100576.70
2019-05-23T12:18:38.055Z,100583.16
2019-05-23T12:21:07.158Z,100579.18
2019-05-23T12:23:35.844Z,100567.52
2019-05-23T12:26:04.609Z,100562.98
2019-05-23T12:28:33.352Z,100569.59
2019-05-23T12:31:02.323Z,100561.34
2019-05-23T12:33:31.305Z,100559.30
2019-05-23T12:35:59.978Z,100557.44
2019-05-23T12:38:28.639Z,100557.05
2019-05-23T12:40:57.348Z,100558.58
2019-05-23T12:43:26.022Z,100562.59
2019-05-23T12:45:54.681Z,100559.81
2019-05-23T12:48:37.004Z,100563.98
2019-05-23T12:51:05.973Z,100553.16
2019-05-23T12:53:34.822Z,100555.79
2019-05-23T12:56:03.919Z,100547.05
2019-05-23T12:58:34.318Z,100541.93
2019-05-23T13:01:04.842Z,100538.87
2019-05-23T13:03:33.635Z,100534.82
2019-05-23T13:06:02.471Z,100539.83
2019-05-23T13:08:31.279Z,100540.56
2019-05-23T13:10:59.945Z,100538.11
2019-05-23T13:13:28.883Z,100535.30
2019-05-23T13:15:57.542Z,100533.98
2019-05-23T13:18:26.354Z,100524.37
2019-05-23T13:20:59.213Z,100526.83
2019-05-23T13:23:26.604Z,100523.84
2019-05-23T13:25:55.281Z,100510.67
2019-05-23T13:28:24.029Z,100522.98
2019-05-23T13:30:52.842Z,100532.81
2019-05-23T13:33:21.578Z,100528.46
2019-05-23T13:35:50.345Z,100529.38
2019-05-23T13:38:19.340Z,100525.83
2019-05-23T13:40:47.964Z,100525.74
2019-05-23T13:43:16.640Z,100509.36
2019-05-23T13:45:45.430Z,100520.14
2019-05-23T13:48:14.115Z,100514.77
2019-05-23T13:50:42.990Z,100517.72
2019-05-23T13:53:11.790Z,100520.93
2019-05-23T13:55:40.549Z,100504.47
2019-05-23T13:58:09.802Z,100514.69
2019-05-23T14:00:39.030Z,100507.09
2019-05-23T14:03:07.854Z,100499.91
2019-05-23T14:05:36.611Z,100496.95
2019-05-23T14:08:12.236Z,100498.17
2019-05-23T14:10:35.988Z,100505.25
2019-05-23T14:13:04.821Z,100499.45
2019-05-23T14:15:38.496Z,100497.37
2019-05-23T14:18:07.233Z,100493.72
2019-05-23T14:20:35.854Z,100497.69
2019-05-23T14:23:12.793Z,100497.52
2019-05-23T14:25:43.014Z,100496.69
2019-05-23T14:28:11.918Z,100489.89
2019-05-23T14:30:45.034Z,100485.98
2019-05-23T14:33:41.750Z,100487.44
2019-05-23T14:36:17.354Z,100491.57
2019-05-23T14:38:46.136Z,100485.63
2019-05-23T14:41:14.873Z,100487.34
2019-05-23T14:43:45.261Z,100485.97
2019-05-23T14:46:16.005Z,100491.34
2019-05-23T14:49:13.057Z,100498.42
2019-05-23T14:51:57.973Z,100484.41
2019-05-23T14:54:31.367Z,100482.70
2019-05-23T14:57:00.106Z,100484.39
2019-05-23T14:59:28.970Z,100476.78
2019-05-23T15:01:58.186Z,100468.30
2019-05-23T15:04:27.020Z,100470.89
2019-05-23T15:06:55.789Z,100468.27
2019-05-23T15:09:24.520Z,100478.42
2019-05-23T15:11:53.186Z,100473.65
2019-05-23T15:14:22.704Z,100472.23
2019-05-23T15:16:51.391Z,100466.36
2019-05-23T15:19:38.820Z,100469.70
2019-05-23T15:21:50.452Z,100469.35
2019-05-23T15:24:19.265Z,100479.22
2019-05-23T15:26:48.280Z,100479.03
2019-05-23T15:29:17.038Z,100473.65
2019-05-23T15:32:00.911Z,100470.63
2019-05-23T15:34:16.383Z,100470.73
2019-05-23T15:36:45.075Z,100467.52
2019-05-23T15:39:13.801Z,100464.92
2019-05-23T15:41:42.504Z,100464.66
2019-05-23T15:44:23.941Z,100465.14
2019-05-23T15:46:41.743Z,100468.64
2019-05-23T15:49:11.944Z,100468.91
2019-05-23T15:51:47.037Z,100470.25
2019-05-23T15:54:34.784Z,100465.84
2019-05-23T15:57:12.311Z,100473.89
2019-05-23T15:59:51.434Z,100476.52
2019-05-23T16:02:22.804Z,100465.28
2019-05-23T16:04:55.386Z,100460.64
2019-05-23T16:07:24.970Z,100455.57
2019-05-23T16:09:53.720Z,100450.59
2019-05-23T16:12:22.377Z,100445.47
2019-05-23T16:14:51.614Z,100439.63
2019-05-23T16:17:20.291Z,100444.22
2019-05-23T16:19:49.334Z,100437.81
2019-05-23T16:22:18.183Z,100443.57
2019-05-23T16:24:46.904Z,100435.98
2019-05-23T16:27:15.671Z,100433.45
2019-05-23T16:29:44.511Z,100426.91
2019-05-23T16:32:13.570Z,100433.93
2019-05-23T16:34:42.430Z,100430.25
2019-05-23T16:37:11.287Z,100427.02
2019-05-23T16:39:47.372Z,100423.41
2019-05-23T16:42:10.557Z,100424.09
2019-05-23T16:44:39.270Z,100425.17
2019-05-23T16:47:08.207Z,100434.05
2019-05-23T16:49:36.964Z,100434.66
2019-05-23T16:52:05.783Z,100431.76
2019-05-23T16:54:39.463Z,100431.00
2019-05-23T16:57:32.648Z,100432.98
2019-05-23T17:00:21.204Z,100435.80
2019-05-23T17:03:12.111Z,100427.88
2019-05-23T17:05:54.036Z,100429.31
2019-05-23T17:08:41.794Z,100425.57
2019-05-23T17:11:29.678Z,100422.25
2019-05-23T17:14:06.720Z,100421.34
2019-05-23T17:16:41.710Z,100414.44
2019-05-23T17:19:19.726Z,100419.48
2019-05-23T17:22:10.389Z,100417.16
2019-05-23T17:24:44.847Z,100411.48
2019-05-23T17:27:40.069Z,100409.92
2019-05-23T17:30:19.244Z,100417.77
2019-05-23T17:32:47.925Z,100410.67
2019-05-23T17:35:16.782Z,100413.80
2019-05-23T17:37:45.543Z,100409.22
2019-05-23T17:40:24.194Z,100405.80
2019-05-23T17:42:45.057Z,100401.59
2019-05-23T17:45:14.347Z,100400.45
2019-05-23T17:47:43.132Z,100401.83
2019-05-23T17:50:11.946Z,100402.96
2019-05-23T17:52:40.670Z,100398.75
2019-05-23T17:55:09.518Z,100404.58
2019-05-23T17:57:38.744Z,100402.23
2019-05-23T18:00:07.948Z,100409.48
2019-05-23T18:02:36.979Z,100404.40
2019-05-23T18:05:08.052Z,100406.45
2019-05-23T18:07:36.863Z,100407.60
2019-05-23T18:10:06.240Z,100414.02
2019-05-23T18:12:34.937Z,100414.72
2019-05-23T18:15:04.662Z,100416.77
2019-05-23T18:17:33.348Z,100418.65
2019-05-23T18:20:02.163Z,100417.09
2019-05-23T18:22:32.475Z,100418.16
2019-05-23T18:25:01.817Z,100412.77
2019-05-23T18:27:31.920Z,100411.25
2019-05-23T18:30:01.485Z,100410.73
2019-05-23T18:32:30.372Z,100410.18
2019-05-23T18:34:59.412Z,100410.45
2019-05-23T18:37:28.376Z,100407.52
2019-05-23T18:39:57.039Z,100408.31
2019-05-23T18:42:26.403Z,100409.55
2019-05-23T18:44:55.733Z,100412.89
2019-05-23T18:47:30.211Z,100406.52
2019-05-23T18:49:59.131Z,100412.12
2019-05-23T18:52:27.947Z,100412.88
2019-05-23T18:54:56.622Z,100412.53
2019-05-23T18:57:25.362Z,100417.85
2019-05-23T18:59:54.054Z,100421.98
2019-05-23T19:02:23.936Z,100418.91
2019-05-23T19:04:53.279Z,100425.28
2019-05-23T19:07:22.108Z,100423.42
2019-05-23T19:09:50.806Z,100423.68
2019-05-23T19:12:20.090Z,100420.25
2019-05-23T19:14:48.834Z,100425.41
2019-05-23T19:17:17.846Z,100422.78
2019-05-23T19:19:46.672Z,100423.57
2019-05-23T19:22:16.225Z,100422.01
2019-05-23T19:24:44.966Z,100421.66
2019-05-23T19:27:14.477Z,100425.48
2019-05-23T19:29:43.752Z,100426.97
2019-05-23T19:32:14.160Z,100428.94
2019-05-23T19:34:43.330Z,100431.85
2019-05-23T19:37:12.742Z,100420.31
2019-05-23T19:39:42.141Z,100427.00
2019-05-23T19:42:11.033Z,100426.89
2019-05-23T19:44:39.734Z,100428.25
2019-05-23T19:47:08.475Z,100430.24
2019-05-23T19:49:37.164Z,100425.87
2019-05-23T19:52:06.803Z,100429.52
2019-05-23T19:54:35.748Z,100429.70
2019-05-23T19:57:04.591Z,100429.04
2019-05-23T19:59:33.789Z,100424.58
2019-05-23T20:02:15.572Z,100426.33
2019-05-23T20:04:50.647Z,100425.92
2019-05-23T20:07:19.361Z,100423.37
2019-05-23T20:09:48.355Z,100420.33
2019-05-23T20:12:17.699Z,100423.61
2019-05-23T20:14:46.471Z,100418.28
2019-05-23T20:17:15.889Z,100419.72
2019-05-23T20:19:44.565Z,100421.54
2019-05-23T20:22:13.523Z,100426.64
2019-05-23T20:24:42.226Z,100423.70
2019-05-23T20:27:11.188Z,100423.02
2019-05-23T20:29:39.867Z,100423.55
2019-05-23T20:32:09.027Z,100432.23
2019-05-23T20:34:37.710Z,100427.98
2019-05-23T20:37:07.589Z,100427.22
2019-05-23T20:39:36.747Z,100426.98
2019-05-23T20:42:11.446Z,100430.94
2019-05-23T20:44:36.409Z,100422.22
2019-05-23T20:47:06.684Z,100430.55
2019-05-23T20:49:35.386Z,100430.94
2019-05-23T20:52:04.736Z,100431.23
2019-05-23T20:54:34.037Z,100430.76
2019-05-23T20:57:02.804Z,100435.60
2019-05-23T20:59:31.476Z,100426.70
2019-05-23T21:02:00.343Z,100432.69
2019-05-23T21:04:29.517Z,100436.47
2019-05-23T21:06:58.276Z,100434.05
2019-05-23T21:09:27.579Z,100432.88
2019-05-23T21:11:56.270Z,100430.16
2019-05-23T21:14:24.979Z,100429.92
2019-05-23T21:16:53.898Z,100429.89
2019-05-23T21:19:22.582Z,100427.69
2019-05-23T21:21:51.460Z,100433.59
2019-05-23T21:24:20.234Z,100427.86
2019-05-23T21:26:48.920Z,100432.95
2019-05-23T21:29:17.668Z,100432.27
2019-05-23T21:31:46.628Z,100437.96
2019-05-23T21:34:15.407Z,100437.89
2019-05-23T21:36:44.171Z,100436.22
2019-05-23T21:39:14.880Z,100436.22
2019-05-23T21:41:43.662Z,100434.89
2019-05-23T21:44:12.655Z,100443.31
2019-05-23T21:46:41.320Z,100440.08
2019-05-23T21:49:10.083Z,100434.22
2019-05-23T21:51:38.756Z,100436.09
2019-05-23T21:54:07.614Z,100434.91
2019-05-23T21:56:36.399Z,100430.00
2019-05-23T21:59:05.163Z,100430.76
2019-05-23T22:01:42.962Z,100429.19
2019-05-23T22:04:39.759Z,100427.73
2019-05-23T22:07:09.179Z,100419.65
2019-05-23T22:09:38.546Z,100426.45
2019-05-23T22:12:09.738Z,100424.11
2019-05-23T22:14:38.476Z,100424.52
2019-05-23T22:17:07.260Z,100412.95
2019-05-23T22:19:36.354Z,100416.73
2019-05-23T22:22:06.396Z,100413.89
2019-05-23T22:24:35.075Z,100415.63
2019-05-23T22:27:05.838Z,100406.94
2019-05-23T22:29:34.602Z,100410.13
2019-05-23T22:32:03.812Z,100405.44
2019-05-23T22:34:46.458Z,100408.54
2019-05-23T22:37:24.482Z,100401.90
2019-05-23T22:39:53.438Z,100400.08
2019-05-23T22:42:23.522Z,100402.34
2019-05-23T22:44:52.473Z,100399.63
2019-05-23T22:47:21.215Z,100402.73
2019-05-23T22:49:49.964Z,100399.37
2019-05-23T22:52:18.629Z,100405.30
2019-05-23T22:54:47.326Z,100405.83
2019-05-23T22:57:16.153Z,100400.52
2019-05-23T22:59:44.882Z,100399.55
2019-05-23T23:02:15.755Z,100400.27
2019-05-23T23:04:44.504Z,100395.53
2019-05-23T23:07:13.273Z,100392.70
2019-05-23T23:09:42.003Z,100399.47
2019-05-23T23:12:12.106Z,100395.08
2019-05-23T23:14:40.942Z,100394.91
2019-05-23T23:17:09.603Z,100392.86
2019-05-23T23:19:39.529Z,100390.95
2019-05-23T23:22:10.805Z,100395.39
2019-05-23T23:24:39.618Z,100396.70
2019-05-23T23:27:08.386Z,100390.08
2019-05-23T23:29:37.574Z,100389.94
2019-05-23T23:32:06.317Z,100391.98
2019-05-23T23:34:34.989Z,100390.15
2019-05-23T23:37:03.698Z,100389.70
2019-05-23T23:39:32.458Z,100391.07
2019-05-23T23:42:01.202Z,100388.21
2019-05-23T23:44:35.135Z,100392.28
2019-05-23T23:47:23.346Z,100386.79
2019-05-23T23:50:10.020Z,100390.61
2019-05-23T23:52:56.631Z,100385.19
2019-05-23T23:55:43.453Z,100388.95
2019-05-23T23:58:11.351Z,100381.67
